Flight Track Log - Related Links

Times and Time Zones

All times are in EDT time to prevent confusion due to time zone crossing. See the N839CA flight status page for this flight to view local times or setup timezone preferences in your user account.

Time Position Orientation Groundspeed Altitude Reporting Facility
EDT Latitude Longitude Course Direction KTS MPH feet Rate Location/Type
Sat 10:24:50 AM 42.7297 -73.8081 198° South 114 131 1,400  Level Boston Center
Sat 10:25:51 AM 42.6922 -73.8242 198° South 177 204 2,100 984 Climbing Boston Center
Sat 10:26:52 AM 42.6458 -73.8628 211° Southwest 197 227 3,400 1,339 Climbing Boston Center
Sat 10:27:52 AM 42.6017 -73.8983 211° Southwest 184 212 4,800 1,190 Climbing Boston Center
Sat 10:28:53 AM 42.5572 -73.9311 209° Southwest 181 208 5,800 992 Climbing Boston Center
Sat 10:29:53 AM 42.5111 -73.9667 210° Southwest 194 223 6,800 1,087 Climbing Boston Center
Sat 10:31:00 AM 42.4583 -74.0103 211° Southwest 196 226 8,100 1,108 Climbing Boston Center
Sat 10:32:03 AM 42.4078 -74.0456 207° Southwest 210 242 9,200 829 Climbing Boston Center
Sat 10:33:03 AM 42.3614 -74.0839 211° Southwest 205 236 9,800 350 Climbing Boston Center
Sat 10:34:03 AM 42.3086 -74.1244 210° Southwest 210 242 9,900 100 Climbing Boston Center
Sat 10:35:03 AM 42.2517 -74.1708 211° Southwest 233 268 10,000 50 Climbing Boston Center
Sat 10:36:03 AM 42.1908 -74.2056 203° Southwest 238 274 10,000 -50 Level Boston Center
Sat 10:37:03 AM 42.1256 -74.2372 200° South 243 280 9,900  Descending Boston Center
Sat 10:38:03 AM 42.0669 -74.2664 200° South 243 280 10,000 50 Climbing Boston Center
Sat 10:39:03 AM 42.0017 -74.2981 200° South 243 280 10,000 -50 Level Boston Center
Sat 10:40:03 AM 41.9408 -74.3269 199° South 243 280 9,900 -400 Descending Boston Center
Sat 10:41:03 AM 41.8756 -74.3583 200° South 243 280 9,200 -800 Descending Boston Center
Sat 10:42:03 AM 41.8106 -74.3897 200° South 248 285 8,300 -750 Descending Boston Center
Sat 10:43:03 AM 41.7475 -74.4183 199° South 248 285 7,700 -500 Descending Boston Center
Sat 10:44:03 AM 41.6906 -74.4472 201° Southwest 248 285 7,300 -300 Descending Boston Center
Sat 10:45:03 AM 41.6192 -74.4811 200° South 248 285 7,100 -150 Descending Boston Center
Sat 10:46:03 AM 41.5625 -74.5097 201° Southwest 248 285 7,000 -350 Descending Boston Center
Sat 10:47:03 AM 41.4931 -74.5408 199° South 248 285 6,400 -258 Descending Boston Center
Sat 10:49:32 AM 41.3500 -74.5333 178° South 238 274 6,100 -177 Descending New York TRACON
Sat 10:50:26 AM 41.3000 -74.5000 153° Southeast 241 277 5,800 -737 Descending New York TRACON
Sat 10:51:26 AM 41.2333 -74.4333 143° Southeast 256 295 4,700 -900 Descending New York TRACON
Sat 10:52:26 AM 41.1833 -74.3833 143° Southeast 239 275 4,000 -316 Descending New York TRACON
Sat 10:53:20 AM 41.1333 -74.3333 143° Southeast 251 289 4,100  Climbing New York TRACON
Sat 10:54:20 AM 41.0833 -74.2833 143° Southeast 242 278 4,000 -50 Descending New York TRACON
Sat 10:55:20 AM 41.0167 -74.2333 150° Southeast 244 281 4,000  Level New York TRACON
Sat 10:56:20 AM 40.9667 -74.1833 143° Southeast 248 285 4,000 -368 Level New York TRACON
Sat 10:57:14 AM 40.9167 -74.1333 143° Southeast 251 289 3,300 -526 Descending New York TRACON
Sat 10:58:14 AM 40.8667 -74.0667 135° Southeast 252 290 3,000 -500 Descending New York TRACON
Sat 10:59:14 AM 40.8000 -74.1000 201° Southwest 213 245 2,300 -850 Descending New York TRACON
Sat 11:00:14 AM 40.7500 -74.1167 194° South 175 201 1,300 -850 Descending New York TRACON
Sat 11:01:14 AM 40.7167 -74.1500 217° Southwest 130 150 600 -700 Descending New York TRACON
Sat 11:03:00 AM 40.6925 -74.1687 169° South  Level Estimated
Sat 11:10:00 AM 40.6925 -74.1687 169° South  Level Estimated
Sat 11:11:00 AM 40.6925 -74.1687 169° South  Level Estimated

Login

Don't have an account? Register now (free) for customized features, flight alerts, and more!